Elon, NC

13:31 EST le 30 janvier 2015 (GMT -0500)
Burlington-Alamance Regional | Change Station
CLOSE
Current Station
Aéroport
Location: Burlington,
Altitude: 617 ft
Stations météo à proximité

Alt. 617 ft 36.05 °N, 79.47 °W | Updated 37 minutes ago

Nuageux
Nuageux
47 ° F
Paraît 47 ° F
N
15
Vent Variable Vent de NO
Gusts 23 mph

Aujourd'hui
Haut(e) -- | Bas -- ° F
--% Risque de précip.
Hier
Haut(e) -- | Bas -- ° F
Precip. -- pouce
7:20 AM 5:42 PM
Lune gibbeuse croissante, 84% visible
Pression 30.10 pouce
Visibilité 10.0 Miles terrestres
Nuages Peu 6500 ft
Point de rosée 14 ° F
Humidité 27%
Précipitations 0.00 pouce
Profondeur de la couche neigeuse Non disponible.
UV 4 sur 12
Pollen 3.00 sur 12
Qualité de l'air Non disponible.
Flu Activity Non disponible.
METAR KBUY 301754Z AUTO 32013G20KT 10SM FEW065 08/M10 A3010 RMK AO2 PK WND 28029/1659 SLP192 T00831100 10083 20050 58001

More Conditions Fewer Conditions

Pression 30.10 pouce
Visibilité 10.0 Miles terrestres
Nuages Peu 6500 ft
Point de rosée 14 ° F
Humidité 27%
Précipitations 0.00 pouce
Profondeur de la couche neigeuse Non disponible.
UV 4 sur 12
Pollen 3.00 sur 12
Qualité de l'air Non disponible.
Flu Activity Non disponible.
METAR KBUY 301754Z AUTO 32013G20KT 10SM FEW065 08/M10 A3010 RMK AO2 PK WND 28029/1659 SLP192 T00831100 10083 20050 58001

More Conditions Fewer Conditions

10-Day Weather Forecast

Almanac

Astronomie

Jan. 30, 2015 Lever Coucher
Temps réel
Crépuscule civil
Crépuscule nautique
Crépuscule astronomique
Lune
Durée de lumière visible
Longueur du jour
Tomorrow will be .
, % of the Moon is Illuminated

Extrêmes aujourd'hui

State Highs State Lows

Community

WunderPhotos

Upload Photos

1,791,857 Photos téléchargées !

WunderBlogs® & News

Nearby

Qualité de l'air

  Qualité de l'air Indice de la qualité de l'air Polluant
Not available.

Épaisseur de neige

Station Depth Altitude

Activité sismique

Ville Distance Mag. Time & Date
Minimum magnitude displayed is 2.5.

Températures des eaux côtières

Lieu Température

Stations météo à proximité